sensor_id;sensor_type;location;lat;lon;timestamp;P1;durP1;ratioP1;P2;durP2;ratioP2
17181;SDS011;8706;48.254;16.422;2024-01-30T00:00:45;7.63;;;6.93;;
17181;SDS011;8706;48.254;16.422;2024-01-30T00:03:14;7.57;;;6.77;;
17181;SDS011;8706;48.254;16.422;2024-01-30T00:05:41;7.57;;;6.87;;
17181;SDS011;8706;48.254;16.422;2024-01-30T00:08:07;7.23;;;6.53;;
17181;SDS011;8706;48.254;16.422;2024-01-30T00:10:34;7.67;;;6.93;;
17181;SDS011;8706;48.254;16.422;2024-01-30T00:13:01;8.17;;;6.90;;
17181;SDS011;8706;48.254;16.422;2024-01-30T00:15:28;7.63;;;6.83;;
17181;SDS011;8706;48.254;16.422;2024-01-30T00:17:55;7.33;;;6.63;;
17181;SDS011;8706;48.254;16.422;2024-01-30T00:20:23;7.13;;;6.53;;
17181;SDS011;8706;48.254;16.422;2024-01-30T00:22:50;6.87;;;6.17;;
17181;SDS011;8706;48.254;16.422;2024-01-30T00:25:17;7.40;;;6.70;;
17181;SDS011;8706;48.254;16.422;2024-01-30T00:27:44;7.23;;;6.53;;
17181;SDS011;8706;48.254;16.422;2024-01-30T00:30:11;6.83;;;6.13;;
17181;SDS011;8706;48.254;16.422;2024-01-30T00:32:39;6.80;;;6.10;;
17181;SDS011;8706;48.254;16.422;2024-01-30T00:35:06;6.37;;;5.87;;
17181;SDS011;8706;48.254;16.422;2024-01-30T00:37:36;7.20;;;6.50;;
17181;SDS011;8706;48.254;16.422;2024-01-30T00:40:03;6.83;;;6.23;;
17181;SDS011;8706;48.254;16.422;2024-01-30T00:42:31;6.77;;;6.10;;
17181;SDS011;8706;48.254;16.422;2024-01-30T00:44:58;7.30;;;6.60;;
17181;SDS011;8706;48.254;16.422;2024-01-30T00:47:25;6.87;;;6.23;;
17181;SDS011;8706;48.254;16.422;2024-01-30T00:49:51;6.90;;;6.20;;
17181;SDS011;8706;48.254;16.422;2024-01-30T00:52:18;6.87;;;6.17;;
17181;SDS011;8706;48.254;16.422;2024-01-30T00:54:47;7.00;;;6.33;;
17181;SDS011;8706;48.254;16.422;2024-01-30T00:57:13;7.00;;;6.30;;
17181;SDS011;8706;48.254;16.422;2024-01-30T00:59:40;7.23;;;6.53;;
17181;SDS011;8706;48.254;16.422;2024-01-30T01:02:07;6.20;;;5.60;;
17181;SDS011;8706;48.254;16.422;2024-01-30T01:04:34;6.63;;;6.03;;
17181;SDS011;8706;48.254;16.422;2024-01-30T01:07:01;6.60;;;6.00;;
17181;SDS011;8706;48.254;16.422;2024-01-30T01:09:28;7.10;;;6.40;;
17181;SDS011;8706;48.254;16.422;2024-01-30T01:11:56;7.03;;;6.43;;
17181;SDS011;8706;48.254;16.422;2024-01-30T01:14:23;7.83;;;7.03;;
17181;SDS011;8706;48.254;16.422;2024-01-30T01:16:50;7.17;;;6.47;;
17181;SDS011;8706;48.254;16.422;2024-01-30T01:19:17;7.10;;;6.40;;
17181;SDS011;8706;48.254;16.422;2024-01-30T01:21:44;6.77;;;6.17;;
17181;SDS011;8706;48.254;16.422;2024-01-30T01:24:11;6.50;;;5.90;;
17181;SDS011;8706;48.254;16.422;2024-01-30T01:26:37;7.10;;;6.40;;
17181;SDS011;8706;48.254;16.422;2024-01-30T01:29:06;6.37;;;5.77;;
17181;SDS011;8706;48.254;16.422;2024-01-30T01:31:35;6.47;;;5.93;;
17181;SDS011;8706;48.254;16.422;2024-01-30T01:34:05;6.83;;;6.23;;
17181;SDS011;8706;48.254;16.422;2024-01-30T01:36:32;6.93;;;6.23;;
17181;SDS011;8706;48.254;16.422;2024-01-30T01:38:58;7.00;;;6.30;;
17181;SDS011;8706;48.254;16.422;2024-01-30T01:41:29;6.80;;;6.20;;
17181;SDS011;8706;48.254;16.422;2024-01-30T01:43:56;7.17;;;6.50;;
17181;SDS011;8706;48.254;16.422;2024-01-30T01:46:26;6.70;;;6.10;;
17181;SDS011;8706;48.254;16.422;2024-01-30T01:48:53;6.53;;;5.93;;
17181;SDS011;8706;48.254;16.422;2024-01-30T01:51:21;6.60;;;6.00;;
17181;SDS011;8706;48.254;16.422;2024-01-30T01:53:49;6.60;;;6.00;;
17181;SDS011;8706;48.254;16.422;2024-01-30T01:56:16;6.30;;;5.70;;
17181;SDS011;8706;48.254;16.422;2024-01-30T01:58:43;6.40;;;5.90;;
17181;SDS011;8706;48.254;16.422;2024-01-30T02:01:12;6.80;;;6.20;;
17181;SDS011;8706;48.254;16.422;2024-01-30T02:03:41;6.43;;;5.83;;
17181;SDS011;8706;48.254;16.422;2024-01-30T02:06:08;7.40;;;6.70;;
17181;SDS011;8706;48.254;16.422;2024-01-30T02:08:36;7.23;;;6.57;;
17181;SDS011;8706;48.254;16.422;2024-01-30T02:11:04;6.50;;;5.90;;
17181;SDS011;8706;48.254;16.422;2024-01-30T02:13:31;6.60;;;6.00;;
17181;SDS011;8706;48.254;16.422;2024-01-30T02:15:58;6.70;;;6.10;;
17181;SDS011;8706;48.254;16.422;2024-01-30T02:18:24;6.97;;;6.33;;
17181;SDS011;8706;48.254;16.422;2024-01-30T02:20:53;6.17;;;5.57;;
17181;SDS011;8706;48.254;16.422;2024-01-30T02:23:23;7.03;;;6.37;;
17181;SDS011;8706;48.254;16.422;2024-01-30T02:25:50;6.93;;;6.23;;
17181;SDS011;8706;48.254;16.422;2024-01-30T02:28:18;6.43;;;5.77;;
17181;SDS011;8706;48.254;16.422;2024-01-30T02:30:45;6.53;;;5.93;;
17181;SDS011;8706;48.254;16.422;2024-01-30T02:33:13;6.07;;;5.53;;
17181;SDS011;8706;48.254;16.422;2024-01-30T02:35:40;6.20;;;5.70;;
17181;SDS011;8706;48.254;16.422;2024-01-30T02:38:06;6.13;;;5.63;;
17181;SDS011;8706;48.254;16.422;2024-01-30T02:40:35;6.60;;;6.00;;
17181;SDS011;8706;48.254;16.422;2024-01-30T02:43:02;6.40;;;5.80;;
17181;SDS011;8706;48.254;16.422;2024-01-30T02:45:29;6.13;;;5.63;;
17181;SDS011;8706;48.254;16.422;2024-01-30T02:47:56;6.63;;;6.03;;
17181;SDS011;8706;48.254;16.422;2024-01-30T02:50:23;5.63;;;5.23;;
17181;SDS011;8706;48.254;16.422;2024-01-30T02:52:50;6.67;;;6.07;;
17181;SDS011;8706;48.254;16.422;2024-01-30T02:55:17;6.40;;;5.90;;
17181;SDS011;8706;48.254;16.422;2024-01-30T02:57:45;7.03;;;6.43;;
17181;SDS011;8706;48.254;16.422;2024-01-30T03:00:12;6.47;;;5.87;;
17181;SDS011;8706;48.254;16.422;2024-01-30T03:02:39;6.43;;;5.83;;
17181;SDS011;8706;48.254;16.422;2024-01-30T03:05:07;5.80;;;5.30;;
17181;SDS011;8706;48.254;16.422;2024-01-30T03:07:34;6.07;;;5.57;;
17181;SDS011;8706;48.254;16.422;2024-01-30T03:10:01;6.03;;;5.47;;
17181;SDS011;8706;48.254;16.422;2024-01-30T03:12:30;6.40;;;5.80;;
17181;SDS011;8706;48.254;16.422;2024-01-30T03:14:58;6.20;;;5.60;;
17181;SDS011;8706;48.254;16.422;2024-01-30T03:17:25;6.60;;;6.00;;
17181;SDS011;8706;48.254;16.422;2024-01-30T03:19:51;6.53;;;5.97;;
17181;SDS011;8706;48.254;16.422;2024-01-30T03:22:18;6.57;;;5.97;;
17181;SDS011;8706;48.254;16.422;2024-01-30T03:24:45;5.80;;;5.30;;
17181;SDS011;8706;48.254;16.422;2024-01-30T03:27:12;6.17;;;5.63;;
17181;SDS011;8706;48.254;16.422;2024-01-30T03:29:39;6.20;;;5.70;;
17181;SDS011;8706;48.254;16.422;2024-01-30T03:32:07;6.10;;;5.50;;
17181;SDS011;8706;48.254;16.422;2024-01-30T03:34:34;6.20;;;5.60;;
17181;SDS011;8706;48.254;16.422;2024-01-30T03:37:01;6.63;;;6.03;;
17181;SDS011;8706;48.254;16.422;2024-01-30T03:39:28;6.40;;;5.90;;
17181;SDS011;8706;48.254;16.422;2024-01-30T03:41:55;6.20;;;5.60;;
17181;SDS011;8706;48.254;16.422;2024-01-30T03:44:22;6.40;;;5.90;;
17181;SDS011;8706;48.254;16.422;2024-01-30T03:46:49;6.50;;;6.00;;
17181;SDS011;8706;48.254;16.422;2024-01-30T03:49:17;6.47;;;5.97;;
17181;SDS011;8706;48.254;16.422;2024-01-30T03:51:44;6.60;;;6.00;;
17181;SDS011;8706;48.254;16.422;2024-01-30T03:54:12;6.47;;;5.87;;
17181;SDS011;8706;48.254;16.422;2024-01-30T03:56:39;6.23;;;5.63;;
17181;SDS011;8706;48.254;16.422;2024-01-30T03:59:06;6.43;;;5.93;;
17181;SDS011;8706;48.254;16.422;2024-01-30T04:01:33;5.97;;;5.47;;
17181;SDS011;8706;48.254;16.422;2024-01-30T04:03:59;6.50;;;5.90;;
17181;SDS011;8706;48.254;16.422;2024-01-30T04:06:28;5.90;;;5.40;;
17181;SDS011;8706;48.254;16.422;2024-01-30T04:08:54;6.27;;;5.67;;
17181;SDS011;8706;48.254;16.422;2024-01-30T04:11:21;6.40;;;5.80;;
17181;SDS011;8706;48.254;16.422;2024-01-30T04:13:48;6.03;;;5.53;;
17181;SDS011;8706;48.254;16.422;2024-01-30T04:16:21;6.37;;;5.87;;
17181;SDS011;8706;48.254;16.422;2024-01-30T04:18:48;6.30;;;5.70;;
17181;SDS011;8706;48.254;16.422;2024-01-30T04:21:15;6.00;;;5.50;;
17181;SDS011;8706;48.254;16.422;2024-01-30T04:23:43;6.20;;;5.60;;
17181;SDS011;8706;48.254;16.422;2024-01-30T04:26:10;6.23;;;5.63;;
17181;SDS011;8706;48.254;16.422;2024-01-30T04:28:37;6.47;;;5.93;;
17181;SDS011;8706;48.254;16.422;2024-01-30T04:31:04;5.97;;;5.47;;
17181;SDS011;8706;48.254;16.422;2024-01-30T04:33:31;6.00;;;5.50;;
17181;SDS011;8706;48.254;16.422;2024-01-30T04:35:58;6.90;;;6.23;;
17181;SDS011;8706;48.254;16.422;2024-01-30T04:38:25;6.43;;;5.43;;
17181;SDS011;8706;48.254;16.422;2024-01-30T04:40:53;6.27;;;5.60;;
17181;SDS011;8706;48.254;16.422;2024-01-30T04:43:20;6.40;;;5.90;;
17181;SDS011;8706;48.254;16.422;2024-01-30T04:45:46;6.43;;;5.90;;
17181;SDS011;8706;48.254;16.422;2024-01-30T04:48:13;5.70;;;5.20;;
17181;SDS011;8706;48.254;16.422;2024-01-30T04:50:40;6.27;;;5.73;;
17181;SDS011;8706;48.254;16.422;2024-01-30T04:53:07;6.10;;;5.50;;
17181;SDS011;8706;48.254;16.422;2024-01-30T04:55:34;5.43;;;5.03;;
17181;SDS011;8706;48.254;16.422;2024-01-30T04:58:03;6.00;;;5.50;;
17181;SDS011;8706;48.254;16.422;2024-01-30T05:00:30;6.30;;;5.70;;
17181;SDS011;8706;48.254;16.422;2024-01-30T05:02:57;6.30;;;5.70;;
17181;SDS011;8706;48.254;16.422;2024-01-30T05:05:24;6.30;;;5.70;;
17181;SDS011;8706;48.254;16.422;2024-01-30T05:07:50;6.30;;;5.70;;
17181;SDS011;8706;48.254;16.422;2024-01-30T05:10:17;5.87;;;5.37;;
17181;SDS011;8706;48.254;16.422;2024-01-30T05:12:44;5.53;;;5.00;;
17181;SDS011;8706;48.254;16.422;2024-01-30T05:15:12;5.60;;;5.10;;
17181;SDS011;8706;48.254;16.422;2024-01-30T05:17:39;6.30;;;5.70;;
17181;SDS011;8706;48.254;16.422;2024-01-30T05:20:07;6.30;;;5.80;;
17181;SDS011;8706;48.254;16.422;2024-01-30T05:22:35;6.20;;;5.70;;
17181;SDS011;8706;48.254;16.422;2024-01-30T05:25:03;6.10;;;5.60;;
17181;SDS011;8706;48.254;16.422;2024-01-30T05:27:30;6.10;;;5.60;;
17181;SDS011;8706;48.254;16.422;2024-01-30T05:29:57;6.33;;;5.80;;
17181;SDS011;8706;48.254;16.422;2024-01-30T05:32:25;6.47;;;5.87;;
17181;SDS011;8706;48.254;16.422;2024-01-30T05:34:52;5.87;;;5.37;;
17181;SDS011;8706;48.254;16.422;2024-01-30T05:37:19;6.13;;;5.60;;
17181;SDS011;8706;48.254;16.422;2024-01-30T05:39:45;5.73;;;5.23;;
17181;SDS011;8706;48.254;16.422;2024-01-30T05:42:12;6.10;;;5.60;;
17181;SDS011;8706;48.254;16.422;2024-01-30T05:44:40;6.70;;;6.10;;
17181;SDS011;8706;48.254;16.422;2024-01-30T05:47:06;5.90;;;5.40;;
17181;SDS011;8706;48.254;16.422;2024-01-30T05:49:35;6.07;;;5.57;;
17181;SDS011;8706;48.254;16.422;2024-01-30T05:52:02;6.23;;;5.73;;
17181;SDS011;8706;48.254;16.422;2024-01-30T05:54:30;6.03;;;5.53;;
17181;SDS011;8706;48.254;16.422;2024-01-30T05:56:56;6.20;;;5.70;;
17181;SDS011;8706;48.254;16.422;2024-01-30T05:59:23;5.70;;;5.20;;
17181;SDS011;8706;48.254;16.422;2024-01-30T06:01:50;5.93;;;5.43;;
17181;SDS011;8706;48.254;16.422;2024-01-30T06:04:17;5.80;;;5.30;;
17181;SDS011;8706;48.254;16.422;2024-01-30T06:06:45;5.67;;;5.13;;
17181;SDS011;8706;48.254;16.422;2024-01-30T06:09:12;6.13;;;5.63;;
17181;SDS011;8706;48.254;16.422;2024-01-30T06:11:39;6.07;;;5.47;;
17181;SDS011;8706;48.254;16.422;2024-01-30T06:14:06;5.70;;;5.20;;
17181;SDS011;8706;48.254;16.422;2024-01-30T06:16:33;6.47;;;5.97;;
17181;SDS011;8706;48.254;16.422;2024-01-30T06:19:00;6.33;;;5.83;;
17181;SDS011;8706;48.254;16.422;2024-01-30T06:21:27;6.00;;;5.50;;
17181;SDS011;8706;48.254;16.422;2024-01-30T06:23:55;6.63;;;6.03;;
17181;SDS011;8706;48.254;16.422;2024-01-30T06:26:22;6.27;;;5.67;;
17181;SDS011;8706;48.254;16.422;2024-01-30T06:28:49;5.50;;;5.10;;
17181;SDS011;8706;48.254;16.422;2024-01-30T06:31:15;6.53;;;6.03;;
17181;SDS011;8706;48.254;16.422;2024-01-30T06:33:42;5.90;;;5.50;;
17181;SDS011;8706;48.254;16.422;2024-01-30T06:36:09;5.57;;;5.17;;
17181;SDS011;8706;48.254;16.422;2024-01-30T06:38:36;5.53;;;4.97;;
17181;SDS011;8706;48.254;16.422;2024-01-30T06:41:04;5.80;;;5.10;;
17181;SDS011;8706;48.254;16.422;2024-01-30T06:43:31;6.03;;;5.43;;
17181;SDS011;8706;48.254;16.422;2024-01-30T06:45:58;6.63;;;6.13;;
17181;SDS011;8706;48.254;16.422;2024-01-30T06:48:25;5.67;;;5.10;;
17181;SDS011;8706;48.254;16.422;2024-01-30T06:50:53;5.50;;;5.03;;
17181;SDS011;8706;48.254;16.422;2024-01-30T06:53:20;6.13;;;5.60;;
17181;SDS011;8706;48.254;16.422;2024-01-30T06:55:47;5.57;;;5.07;;
17181;SDS011;8706;48.254;16.422;2024-01-30T06:58:15;6.57;;;5.90;;
17181;SDS011;8706;48.254;16.422;2024-01-30T07:00:42;5.83;;;5.23;;
17181;SDS011;8706;48.254;16.422;2024-01-30T07:03:08;5.63;;;5.17;;
17181;SDS011;8706;48.254;16.422;2024-01-30T07:05:35;6.30;;;5.70;;
17181;SDS011;8706;48.254;16.422;2024-01-30T07:08:02;6.17;;;5.57;;
17181;SDS011;8706;48.254;16.422;2024-01-30T07:10:30;6.00;;;5.40;;
17181;SDS011;8706;48.254;16.422;2024-01-30T07:12:57;5.90;;;5.40;;
17181;SDS011;8706;48.254;16.422;2024-01-30T07:15:25;7.57;;;5.17;;
17181;SDS011;8706;48.254;16.422;2024-01-30T07:17:52;5.77;;;5.27;;
17181;SDS011;8706;48.254;16.422;2024-01-30T07:20:18;5.37;;;4.87;;
17181;SDS011;8706;48.254;16.422;2024-01-30T07:22:45;7.27;;;5.33;;
17181;SDS011;8706;48.254;16.422;2024-01-30T07:25:12;7.63;;;5.30;;
17181;SDS011;8706;48.254;16.422;2024-01-30T07:27:40;6.20;;;5.60;;
17181;SDS011;8706;48.254;16.422;2024-01-30T07:30:07;6.33;;;5.77;;
17181;SDS011;8706;48.254;16.422;2024-01-30T07:32:35;6.93;;;5.33;;
17181;SDS011;8706;48.254;16.422;2024-01-30T07:35:02;5.60;;;5.10;;
17181;SDS011;8706;48.254;16.422;2024-01-30T07:37:30;6.13;;;5.33;;
17181;SDS011;8706;48.254;16.422;2024-01-30T07:39:56;5.53;;;5.03;;
17181;SDS011;8706;48.254;16.422;2024-01-30T07:42:23;6.27;;;5.67;;
17181;SDS011;8706;48.254;16.422;2024-01-30T07:44:50;6.00;;;5.50;;
17181;SDS011;8706;48.254;16.422;2024-01-30T07:47:17;5.80;;;5.30;;
17181;SDS011;8706;48.254;16.422;2024-01-30T07:49:45;6.60;;;6.00;;
17181;SDS011;8706;48.254;16.422;2024-01-30T07:52:12;6.27;;;5.40;;
17181;SDS011;8706;48.254;16.422;2024-01-30T07:58:01;6.73;;;5.77;;
17181;SDS011;8706;48.254;16.422;2024-01-30T08:00:29;5.40;;;4.90;;
17181;SDS011;8706;48.254;16.422;2024-01-30T08:02:56;6.33;;;5.73;;
17181;SDS011;8706;48.254;16.422;2024-01-30T08:05:25;6.00;;;5.40;;
17181;SDS011;8706;48.254;16.422;2024-01-30T08:07:52;6.20;;;5.70;;
17181;SDS011;8706;48.254;16.422;2024-01-30T08:10:18;6.33;;;5.73;;
17181;SDS011;8706;48.254;16.422;2024-01-30T08:12:46;7.03;;;5.60;;
17181;SDS011;8706;48.254;16.422;2024-01-30T08:15:13;5.70;;;5.20;;
17181;SDS011;8706;48.254;16.422;2024-01-30T08:17:40;6.30;;;5.70;;
17181;SDS011;8706;48.254;16.422;2024-01-30T08:20:07;6.00;;;5.40;;
17181;SDS011;8706;48.254;16.422;2024-01-30T08:22:37;6.00;;;5.50;;
17181;SDS011;8706;48.254;16.422;2024-01-30T08:25:05;6.03;;;5.53;;
17181;SDS011;8706;48.254;16.422;2024-01-30T08:27:33;6.00;;;5.50;;
17181;SDS011;8706;48.254;16.422;2024-01-30T08:30:00;5.57;;;5.10;;
17181;SDS011;8706;48.254;16.422;2024-01-30T08:32:27;5.93;;;5.43;;
17181;SDS011;8706;48.254;16.422;2024-01-30T08:34:54;5.63;;;5.10;;
17181;SDS011;8706;48.254;16.422;2024-01-30T08:37:21;5.43;;;4.93;;
17181;SDS011;8706;48.254;16.422;2024-01-30T08:39:49;6.33;;;5.83;;
17181;SDS011;8706;48.254;16.422;2024-01-30T08:42:16;5.57;;;5.17;;
17181;SDS011;8706;48.254;16.422;2024-01-30T08:44:47;6.47;;;5.83;;
17181;SDS011;8706;48.254;16.422;2024-01-30T08:47:14;6.03;;;5.50;;
17181;SDS011;8706;48.254;16.422;2024-01-30T08:49:42;6.20;;;5.70;;
17181;SDS011;8706;48.254;16.422;2024-01-30T08:52:09;6.07;;;5.57;;
17181;SDS011;8706;48.254;16.422;2024-01-30T08:54:36;5.83;;;4.80;;
17181;SDS011;8706;48.254;16.422;2024-01-30T08:57:04;5.90;;;5.40;;
17181;SDS011;8706;48.254;16.422;2024-01-30T08:59:31;6.30;;;5.70;;
17181;SDS011;8706;48.254;16.422;2024-01-30T09:01:58;5.87;;;5.37;;
17181;SDS011;8706;48.254;16.422;2024-01-30T09:04:25;5.60;;;5.20;;
17181;SDS011;8706;48.254;16.422;2024-01-30T09:06:52;5.40;;;5.00;;
17181;SDS011;8706;48.254;16.422;2024-01-30T09:09:19;5.60;;;5.10;;
17181;SDS011;8706;48.254;16.422;2024-01-30T09:11:46;5.73;;;5.23;;
17181;SDS011;8706;48.254;16.422;2024-01-30T09:14:14;5.83;;;5.33;;
17181;SDS011;8706;48.254;16.422;2024-01-30T09:16:41;5.73;;;5.23;;
17181;SDS011;8706;48.254;16.422;2024-01-30T09:19:08;5.50;;;5.10;;
17181;SDS011;8706;48.254;16.422;2024-01-30T09:21:34;6.80;;;6.10;;
17181;SDS011;8706;48.254;16.422;2024-01-30T09:24:02;5.70;;;5.10;;
17181;SDS011;8706;48.254;16.422;2024-01-30T09:26:30;6.60;;;5.50;;
17181;SDS011;8706;48.254;16.422;2024-01-30T09:28:56;5.97;;;5.37;;
17181;SDS011;8706;48.254;16.422;2024-01-30T09:31:25;6.63;;;5.90;;
17181;SDS011;8706;48.254;16.422;2024-01-30T09:33:52;6.27;;;5.57;;
17181;SDS011;8706;48.254;16.422;2024-01-30T09:36:19;6.93;;;6.23;;
17181;SDS011;8706;48.254;16.422;2024-01-30T09:38:46;7.03;;;6.33;;
17181;SDS011;8706;48.254;16.422;2024-01-30T09:41:13;6.50;;;5.97;;
17181;SDS011;8706;48.254;16.422;2024-01-30T09:43:40;9.53;;;6.47;;
17181;SDS011;8706;48.254;16.422;2024-01-30T09:46:13;7.77;;;6.00;;
17181;SDS011;8706;48.254;16.422;2024-01-30T09:48:44;8.37;;;6.40;;
17181;SDS011;8706;48.254;16.422;2024-01-30T09:51:13;6.23;;;5.37;;
17181;SDS011;8706;48.254;16.422;2024-01-30T09:53:42;7.60;;;5.90;;
17181;SDS011;8706;48.254;16.422;2024-01-30T09:56:09;6.53;;;5.90;;
17181;SDS011;8706;48.254;16.422;2024-01-30T09:58:37;6.40;;;5.83;;
17181;SDS011;8706;48.254;16.422;2024-01-30T10:01:04;5.93;;;5.43;;
17181;SDS011;8706;48.254;16.422;2024-01-30T10:03:31;6.30;;;5.70;;
17181;SDS011;8706;48.254;16.422;2024-01-30T10:06:00;6.23;;;5.73;;
17181;SDS011;8706;48.254;16.422;2024-01-30T10:08:27;6.33;;;5.73;;
17181;SDS011;8706;48.254;16.422;2024-01-30T10:10:54;5.33;;;4.87;;
17181;SDS011;8706;48.254;16.422;2024-01-30T10:13:21;6.67;;;6.07;;
17181;SDS011;8706;48.254;16.422;2024-01-30T10:15:48;6.33;;;5.80;;
17181;SDS011;8706;48.254;16.422;2024-01-30T10:18:16;6.20;;;5.60;;
17181;SDS011;8706;48.254;16.422;2024-01-30T10:20:43;5.33;;;4.83;;
17181;SDS011;8706;48.254;16.422;2024-01-30T10:23:11;5.07;;;4.67;;
17181;SDS011;8706;48.254;16.422;2024-01-30T10:25:39;6.20;;;5.70;;
17181;SDS011;8706;48.254;16.422;2024-01-30T10:28:06;5.23;;;4.83;;
17181;SDS011;8706;48.254;16.422;2024-01-30T10:30:33;5.60;;;5.10;;
17181;SDS011;8706;48.254;16.422;2024-01-30T10:33:00;6.60;;;6.00;;
17181;SDS011;8706;48.254;16.422;2024-01-30T10:35:28;5.33;;;4.93;;
17181;SDS011;8706;48.254;16.422;2024-01-30T10:37:55;5.63;;;5.23;;
17181;SDS011;8706;48.254;16.422;2024-01-30T10:40:25;6.00;;;5.50;;
17181;SDS011;8706;48.254;16.422;2024-01-30T10:42:55;5.40;;;5.00;;
17181;SDS011;8706;48.254;16.422;2024-01-30T10:45:22;5.47;;;5.07;;
17181;SDS011;8706;48.254;16.422;2024-01-30T10:47:53;5.00;;;4.60;;
17181;SDS011;8706;48.254;16.422;2024-01-30T10:50:23;5.57;;;5.17;;
17181;SDS011;8706;48.254;16.422;2024-01-30T10:52:52;5.77;;;5.27;;
17181;SDS011;8706;48.254;16.422;2024-01-30T10:55:19;5.23;;;4.83;;
17181;SDS011;8706;48.254;16.422;2024-01-30T10:57:50;5.37;;;4.87;;
17181;SDS011;8706;48.254;16.422;2024-01-30T11:00:18;5.77;;;5.30;;
17181;SDS011;8706;48.254;16.422;2024-01-30T11:02:48;5.23;;;4.83;;
17181;SDS011;8706;48.254;16.422;2024-01-30T11:05:22;4.90;;;4.50;;
17181;SDS011;8706;48.254;16.422;2024-01-30T11:07:51;5.20;;;4.80;;
17181;SDS011;8706;48.254;16.422;2024-01-30T11:10:18;5.67;;;5.23;;
17181;SDS011;8706;48.254;16.422;2024-01-30T11:12:45;5.20;;;4.77;;
17181;SDS011;8706;48.254;16.422;2024-01-30T11:15:14;5.17;;;4.77;;
17181;SDS011;8706;48.254;16.422;2024-01-30T11:17:42;5.70;;;5.13;;
17181;SDS011;8706;48.254;16.422;2024-01-30T11:20:10;5.37;;;4.87;;
17181;SDS011;8706;48.254;16.422;2024-01-30T11:22:40;5.50;;;5.10;;
17181;SDS011;8706;48.254;16.422;2024-01-30T11:25:10;4.80;;;4.40;;
17181;SDS011;8706;48.254;16.422;2024-01-30T11:27:38;5.33;;;4.83;;
17181;SDS011;8706;48.254;16.422;2024-01-30T11:30:05;5.00;;;4.60;;
17181;SDS011;8706;48.254;16.422;2024-01-30T11:32:35;4.93;;;4.50;;
17181;SDS011;8706;48.254;16.422;2024-01-30T11:35:03;5.23;;;4.83;;
17181;SDS011;8706;48.254;16.422;2024-01-30T11:37:31;5.27;;;4.87;;
17181;SDS011;8706;48.254;16.422;2024-01-30T11:40:02;5.53;;;5.13;;
17181;SDS011;8706;48.254;16.422;2024-01-30T11:42:30;4.90;;;4.50;;
17181;SDS011;8706;48.254;16.422;2024-01-30T11:44:59;5.10;;;4.70;;
17181;SDS011;8706;48.254;16.422;2024-01-30T11:47:26;5.43;;;5.03;;
17181;SDS011;8706;48.254;16.422;2024-01-30T11:49:55;5.40;;;5.00;;
17181;SDS011;8706;48.254;16.422;2024-01-30T11:52:23;5.20;;;4.80;;
17181;SDS011;8706;48.254;16.422;2024-01-30T11:54:50;5.40;;;5.00;;
17181;SDS011;8706;48.254;16.422;2024-01-30T11:57:17;5.30;;;4.90;;
17181;SDS011;8706;48.254;16.422;2024-01-30T11:59:44;5.40;;;5.00;;
17181;SDS011;8706;48.254;16.422;2024-01-30T12:02:15;5.20;;;4.80;;
17181;SDS011;8706;48.254;16.422;2024-01-30T12:04:42;5.80;;;5.30;;
17181;SDS011;8706;48.254;16.422;2024-01-30T12:07:11;4.90;;;4.50;;
17181;SDS011;8706;48.254;16.422;2024-01-30T12:09:40;5.03;;;4.63;;
17181;SDS011;8706;48.254;16.422;2024-01-30T12:12:07;5.43;;;4.93;;
17181;SDS011;8706;48.254;16.422;2024-01-30T12:14:37;4.87;;;4.47;;
17181;SDS011;8706;48.254;16.422;2024-01-30T12:17:05;6.17;;;4.80;;
17181;SDS011;8706;48.254;16.422;2024-01-30T12:19:32;5.73;;;5.23;;
17181;SDS011;8706;48.254;16.422;2024-01-30T12:21:59;5.70;;;5.20;;
17181;SDS011;8706;48.254;16.422;2024-01-30T12:24:28;6.17;;;5.63;;
17181;SDS011;8706;48.254;16.422;2024-01-30T12:26:56;5.53;;;5.13;;
17181;SDS011;8706;48.254;16.422;2024-01-30T12:29:23;5.13;;;4.73;;
17181;SDS011;8706;48.254;16.422;2024-01-30T12:31:52;4.77;;;4.47;;
17181;SDS011;8706;48.254;16.422;2024-01-30T12:34:19;5.33;;;4.93;;
17181;SDS011;8706;48.254;16.422;2024-01-30T12:36:46;4.80;;;4.47;;
17181;SDS011;8706;48.254;16.422;2024-01-30T12:39:13;5.37;;;4.97;;
17181;SDS011;8706;48.254;16.422;2024-01-30T12:41:42;5.00;;;4.63;;
17181;SDS011;8706;48.254;16.422;2024-01-30T12:44:09;5.23;;;4.83;;
17181;SDS011;8706;48.254;16.422;2024-01-30T12:46:36;5.30;;;4.90;;
17181;SDS011;8706;48.254;16.422;2024-01-30T12:49:03;5.47;;;4.97;;
17181;SDS011;8706;48.254;16.422;2024-01-30T12:51:30;5.10;;;4.70;;
17181;SDS011;8706;48.254;16.422;2024-01-30T12:54:03;5.03;;;4.63;;
17181;SDS011;8706;48.254;16.422;2024-01-30T12:56:31;5.27;;;4.87;;
17181;SDS011;8706;48.254;16.422;2024-01-30T12:58:59;5.50;;;5.10;;
17181;SDS011;8706;48.254;16.422;2024-01-30T13:01:26;5.23;;;4.83;;
17181;SDS011;8706;48.254;16.422;2024-01-30T13:03:53;5.20;;;4.77;;
17181;SDS011;8706;48.254;16.422;2024-01-30T13:06:22;4.90;;;4.40;;
17181;SDS011;8706;48.254;16.422;2024-01-30T13:08:49;5.00;;;4.60;;
17181;SDS011;8706;48.254;16.422;2024-01-30T13:11:16;4.83;;;4.43;;
17181;SDS011;8706;48.254;16.422;2024-01-30T13:13:43;6.03;;;5.53;;
17181;SDS011;8706;48.254;16.422;2024-01-30T13:16:11;5.00;;;4.60;;
17181;SDS011;8706;48.254;16.422;2024-01-30T13:18:38;5.70;;;5.20;;
17181;SDS011;8706;48.254;16.422;2024-01-30T13:21:05;4.80;;;4.40;;
17181;SDS011;8706;48.254;16.422;2024-01-30T13:23:32;5.53;;;5.13;;
17181;SDS011;8706;48.254;16.422;2024-01-30T13:25:59;5.33;;;4.93;;
17181;SDS011;8706;48.254;16.422;2024-01-30T13:28:26;5.70;;;5.30;;
17181;SDS011;8706;48.254;16.422;2024-01-30T13:30:53;4.70;;;4.30;;
17181;SDS011;8706;48.254;16.422;2024-01-30T13:33:21;5.67;;;5.27;;
17181;SDS011;8706;48.254;16.422;2024-01-30T13:35:48;5.60;;;5.10;;
17181;SDS011;8706;48.254;16.422;2024-01-30T13:38:15;5.23;;;4.80;;
17181;SDS011;8706;48.254;16.422;2024-01-30T13:40:42;5.43;;;5.03;;
17181;SDS011;8706;48.254;16.422;2024-01-30T13:43:09;5.07;;;4.60;;
17181;SDS011;8706;48.254;16.422;2024-01-30T13:45:36;5.23;;;4.83;;
17181;SDS011;8706;48.254;16.422;2024-01-30T13:48:03;6.30;;;5.80;;
17181;SDS011;8706;48.254;16.422;2024-01-30T13:50:31;5.00;;;4.60;;
17181;SDS011;8706;48.254;16.422;2024-01-30T13:52:59;5.40;;;4.90;;
17181;SDS011;8706;48.254;16.422;2024-01-30T13:55:26;5.47;;;5.07;;
17181;SDS011;8706;48.254;16.422;2024-01-30T13:57:53;5.20;;;4.80;;
17181;SDS011;8706;48.254;16.422;2024-01-30T14:00:20;5.20;;;4.70;;
17181;SDS011;8706;48.254;16.422;2024-01-30T14:02:48;5.30;;;4.80;;
17181;SDS011;8706;48.254;16.422;2024-01-30T14:05:14;5.20;;;4.80;;
17181;SDS011;8706;48.254;16.422;2024-01-30T14:07:43;5.37;;;4.97;;
17181;SDS011;8706;48.254;16.422;2024-01-30T14:10:10;5.33;;;4.93;;
17181;SDS011;8706;48.254;16.422;2024-01-30T14:12:37;5.00;;;4.60;;
17181;SDS011;8706;48.254;16.422;2024-01-30T14:15:04;5.20;;;4.80;;
17181;SDS011;8706;48.254;16.422;2024-01-30T14:17:30;5.43;;;4.93;;
17181;SDS011;8706;48.254;16.422;2024-01-30T14:19:57;5.13;;;4.73;;
17181;SDS011;8706;48.254;16.422;2024-01-30T14:22:24;5.67;;;5.27;;
17181;SDS011;8706;48.254;16.422;2024-01-30T14:24:52;5.23;;;4.83;;
17181;SDS011;8706;48.254;16.422;2024-01-30T14:27:19;5.33;;;4.83;;
17181;SDS011;8706;48.254;16.422;2024-01-30T14:29:46;5.10;;;4.60;;
17181;SDS011;8706;48.254;16.422;2024-01-30T14:32:13;5.43;;;5.03;;
17181;SDS011;8706;48.254;16.422;2024-01-30T14:34:40;5.93;;;5.43;;
17181;SDS011;8706;48.254;16.422;2024-01-30T14:37:07;5.30;;;4.90;;
17181;SDS011;8706;48.254;16.422;2024-01-30T14:39:34;5.40;;;4.93;;
17181;SDS011;8706;48.254;16.422;2024-01-30T14:42:03;5.87;;;5.43;;
17181;SDS011;8706;48.254;16.422;2024-01-30T14:44:31;5.60;;;5.20;;
17181;SDS011;8706;48.254;16.422;2024-01-30T14:46:58;5.77;;;5.20;;
17181;SDS011;8706;48.254;16.422;2024-01-30T14:49:25;5.23;;;4.83;;
17181;SDS011;8706;48.254;16.422;2024-01-30T14:51:52;5.20;;;4.80;;